sensor_id;sensor_type;location;lat;lon;timestamp;temperature;humidity
62476;DHT22;50739;45.670;11.936;2023-05-25T00:01:17;21.27;78.38
62476;DHT22;50739;45.670;11.936;2023-05-25T00:06:20;21.07;79.86
62476;DHT22;50739;45.670;11.936;2023-05-25T00:11:23;20.86;83.26
62476;DHT22;50739;45.670;11.936;2023-05-25T00:16:27;20.71;83.47
62476;DHT22;50739;45.670;11.936;2023-05-25T00:21:30;20.59;83.76
62476;DHT22;50739;45.670;11.936;2023-05-25T00:26:34;20.40;84.02
62476;DHT22;50739;45.670;11.936;2023-05-25T00:31:37;20.23;86.62
62476;DHT22;50739;45.670;11.936;2023-05-25T00:36:40;20.30;88.16
62476;DHT22;50739;45.670;11.936;2023-05-25T00:41:43;20.30;87.77
62476;DHT22;50739;45.670;11.936;2023-05-25T00:46:49;20.24;87.50
62476;DHT22;50739;45.670;11.936;2023-05-25T00:51:52;20.21;87.98
62476;DHT22;50739;45.670;11.936;2023-05-25T00:56:56;20.16;87.58
62476;DHT22;50739;45.670;11.936;2023-05-25T01:02:06;20.12;88.33
62476;DHT22;50739;45.670;11.936;2023-05-25T01:07:09;20.14;88.30
62476;DHT22;50739;45.670;11.936;2023-05-25T01:12:14;19.93;86.36
62476;DHT22;50739;45.670;11.936;2023-05-25T01:17:18;19.85;85.40
62476;DHT22;50739;45.670;11.936;2023-05-25T01:22:26;19.93;83.56
62476;DHT22;50739;45.670;11.936;2023-05-25T01:27:33;19.92;84.26
62476;DHT22;50739;45.670;11.936;2023-05-25T01:32:42;19.86;85.15
62476;DHT22;50739;45.670;11.936;2023-05-25T01:37:47;19.52;86.26
62476;DHT22;50739;45.670;11.936;2023-05-25T01:42:49;19.45;86.36
62476;DHT22;50739;45.670;11.936;2023-05-25T01:48:07;19.68;85.87
62476;DHT22;50739;45.670;11.936;2023-05-25T01:53:18;19.63;85.50
62476;DHT22;50739;45.670;11.936;2023-05-25T01:58:23;19.76;84.86
62476;DHT22;50739;45.670;11.936;2023-05-25T02:03:26;19.79;84.69
62476;DHT22;50739;45.670;11.936;2023-05-25T02:08:30;19.78;85.52
62476;DHT22;50739;45.670;11.936;2023-05-25T02:13:33;19.72;86.04
62476;DHT22;50739;45.670;11.936;2023-05-25T02:18:35;19.61;86.19
62476;DHT22;50739;45.670;11.936;2023-05-25T02:23:39;19.65;85.39
62476;DHT22;50739;45.670;11.936;2023-05-25T02:28:41;19.66;86.23
62476;DHT22;50739;45.670;11.936;2023-05-25T02:33:44;19.66;86.17
62476;DHT22;50739;45.670;11.936;2023-05-25T02:38:47;19.69;86.63
62476;DHT22;50739;45.670;11.936;2023-05-25T02:43:52;19.58;86.71
62476;DHT22;50739;45.670;11.936;2023-05-25T02:48:54;19.65;86.11
62476;DHT22;50739;45.670;11.936;2023-05-25T02:53:58;19.48;86.60
62476;DHT22;50739;45.670;11.936;2023-05-25T02:59:01;19.48;86.59
62476;DHT22;50739;45.670;11.936;2023-05-25T03:04:03;19.32;86.73
62476;DHT22;50739;45.670;11.936;2023-05-25T03:09:07;19.27;88.62
62476;DHT22;50739;45.670;11.936;2023-05-25T03:14:09;19.38;87.98
62476;DHT22;50739;45.670;11.936;2023-05-25T03:19:13;19.35;87.94
62476;DHT22;50739;45.670;11.936;2023-05-25T03:24:18;19.34;87.02
62476;DHT22;50739;45.670;11.936;2023-05-25T03:29:20;19.35;87.12
62476;DHT22;50739;45.670;11.936;2023-05-25T03:34:23;19.38;86.80
62476;DHT22;50739;45.670;11.936;2023-05-25T03:39:27;19.28;87.30
62476;DHT22;50739;45.670;11.936;2023-05-25T03:44:29;19.41;86.46
62476;DHT22;50739;45.670;11.936;2023-05-25T03:49:31;19.41;86.00
62476;DHT22;50739;45.670;11.936;2023-05-25T03:54:36;19.35;86.21
62476;DHT22;50739;45.670;11.936;2023-05-25T03:59:38;19.31;85.74
62476;DHT22;50739;45.670;11.936;2023-05-25T04:04:40;19.35;85.91
62476;DHT22;50739;45.670;11.936;2023-05-25T04:09:45;19.38;84.87
62476;DHT22;50739;45.670;11.936;2023-05-25T04:14:47;19.44;85.27
62476;DHT22;50739;45.670;11.936;2023-05-25T04:19:49;19.48;84.79
62476;DHT22;50739;45.670;11.936;2023-05-25T04:24:53;19.59;84.16
62476;DHT22;50739;45.670;11.936;2023-05-25T04:29:56;19.52;83.59
62476;DHT22;50739;45.670;11.936;2023-05-25T04:34:58;19.61;84.42
62476;DHT22;50739;45.670;11.936;2023-05-25T04:40:02;19.70;84.66
62476;DHT22;50739;45.670;11.936;2023-05-25T04:45:14;19.82;83.94
62476;DHT22;50739;45.670;11.936;2023-05-25T04:50:17;19.90;83.50
62476;DHT22;50739;45.670;11.936;2023-05-25T04:55:20;19.97;82.85
62476;DHT22;50739;45.670;11.936;2023-05-25T05:00:23;20.09;83.02
62476;DHT22;50739;45.670;11.936;2023-05-25T05:05:26;20.35;80.77
62476;DHT22;50739;45.670;11.936;2023-05-25T05:10:30;20.37;79.98
62476;DHT22;50739;45.670;11.936;2023-05-25T05:15:32;20.31;80.07
62476;DHT22;50739;45.670;11.936;2023-05-25T05:20:35;20.52;77.86
62476;DHT22;50739;45.670;11.936;2023-05-25T05:25:40;20.45;78.84
62476;DHT22;50739;45.670;11.936;2023-05-25T05:30:42;20.45;79.38
62476;DHT22;50739;45.670;11.936;2023-05-25T05:35:46;20.62;78.44
62476;DHT22;50739;45.670;11.936;2023-05-25T05:40:50;20.71;78.69
62476;DHT22;50739;45.670;11.936;2023-05-25T05:45:52;20.76;78.46
62476;DHT22;50739;45.670;11.936;2023-05-25T05:50:55;20.69;78.21
62476;DHT22;50739;45.670;11.936;2023-05-25T05:55:58;20.89;77.79
62476;DHT22;50739;45.670;11.936;2023-05-25T06:01:01;21.02;76.35
62476;DHT22;50739;45.670;11.936;2023-05-25T06:06:04;21.09;76.11
62476;DHT22;50739;45.670;11.936;2023-05-25T06:11:08;21.19;76.01
62476;DHT22;50739;45.670;11.936;2023-05-25T06:16:10;21.33;75.17
62476;DHT22;50739;45.670;11.936;2023-05-25T06:21:13;21.44;75.79
62476;DHT22;50739;45.670;11.936;2023-05-25T06:26:16;21.58;75.05
62476;DHT22;50739;45.670;11.936;2023-05-25T06:31:19;21.65;75.12
62476;DHT22;50739;45.670;11.936;2023-05-25T06:36:22;21.62;75.36
62476;DHT22;50739;45.670;11.936;2023-05-25T06:41:25;21.74;74.58
62476;DHT22;50739;45.670;11.936;2023-05-25T06:46:28;21.75;74.19
62476;DHT22;50739;45.670;11.936;2023-05-25T06:51:30;21.88;73.51
62476;DHT22;50739;45.670;11.936;2023-05-25T06:56:34;21.92;73.62
62476;DHT22;50739;45.670;11.936;2023-05-25T07:01:36;21.93;72.80
62476;DHT22;50739;45.670;11.936;2023-05-25T07:06:39;21.83;73.19
62476;DHT22;50739;45.670;11.936;2023-05-25T07:11:42;21.69;75.10
62476;DHT22;50739;45.670;11.936;2023-05-25T07:16:45;21.07;78.12
62476;DHT22;50739;45.670;11.936;2023-05-25T07:21:47;20.78;80.20
62476;DHT22;50739;45.670;11.936;2023-05-25T07:26:51;20.65;84.05
62476;DHT22;50739;45.670;11.936;2023-05-25T07:31:53;19.93;83.35
62476;DHT22;50739;45.670;11.936;2023-05-25T07:36:55;20.06;84.62
62476;DHT22;50739;45.670;11.936;2023-05-25T07:41:59;19.92;88.34
62476;DHT22;50739;45.670;11.936;2023-05-25T07:47:02;19.85;87.44
62476;DHT22;50739;45.670;11.936;2023-05-25T07:52:06;19.83;89.24
62476;DHT22;50739;45.670;11.936;2023-05-25T07:57:10;19.87;89.38
62476;DHT22;50739;45.670;11.936;2023-05-25T08:02:12;20.06;87.97
62476;DHT22;50739;45.670;11.936;2023-05-25T08:07:14;20.12;87.18
62476;DHT22;50739;45.670;11.936;2023-05-25T08:12:18;20.31;86.00
62476;DHT22;50739;45.670;11.936;2023-05-25T08:17:21;20.35;85.29
62476;DHT22;50739;45.670;11.936;2023-05-25T08:22:23;20.47;87.13
62476;DHT22;50739;45.670;11.936;2023-05-25T08:27:26;20.56;87.45
62476;DHT22;50739;45.670;11.936;2023-05-25T08:32:29;20.37;87.89
62476;DHT22;50739;45.670;11.936;2023-05-25T08:37:31;20.35;87.84
62476;DHT22;50739;45.670;11.936;2023-05-25T08:42:35;20.44;87.22
62476;DHT22;50739;45.670;11.936;2023-05-25T08:47:40;20.55;86.38
62476;DHT22;50739;45.670;11.936;2023-05-25T08:52:44;20.71;86.84
62476;DHT22;50739;45.670;11.936;2023-05-25T08:57:57;20.72;84.16
62476;DHT22;50739;45.670;11.936;2023-05-25T09:03:05;20.67;83.94
62476;DHT22;50739;45.670;11.936;2023-05-25T09:08:08;20.35;84.73
62476;DHT22;50739;45.670;11.936;2023-05-25T09:13:12;20.58;84.97
62476;DHT22;50739;45.670;11.936;2023-05-25T09:18:15;20.42;84.74
62476;DHT22;50739;45.670;11.936;2023-05-25T09:23:20;20.44;86.01
62476;DHT22;50739;45.670;11.936;2023-05-25T09:28:24;20.42;86.76
62476;DHT22;50739;45.670;11.936;2023-05-25T09:33:27;20.42;87.31
62476;DHT22;50739;45.670;11.936;2023-05-25T09:38:29;20.34;86.40
62476;DHT22;50739;45.670;11.936;2023-05-25T09:43:33;20.42;84.31
62476;DHT22;50739;45.670;11.936;2023-05-25T09:48:35;20.59;84.59
62476;DHT22;50739;45.670;11.936;2023-05-25T09:53:37;20.59;84.64
62476;DHT22;50739;45.670;11.936;2023-05-25T09:58:41;20.83;83.60
62476;DHT22;50739;45.670;11.936;2023-05-25T10:03:44;20.86;83.73
62476;DHT22;50739;45.670;11.936;2023-05-25T10:08:48;21.02;83.42
62476;DHT22;50739;45.670;11.936;2023-05-25T10:13:52;21.19;81.48
62476;DHT22;50739;45.670;11.936;2023-05-25T10:19:03;21.53;80.20
62476;DHT22;50739;45.670;11.936;2023-05-25T10:24:13;21.62;78.42
62476;DHT22;50739;45.670;11.936;2023-05-25T10:29:19;21.71;78.70
62476;DHT22;50739;45.670;11.936;2023-05-25T10:34:25;21.86;77.93
62476;DHT22;50739;45.670;11.936;2023-05-25T10:39:28;22.05;76.07
62476;DHT22;50739;45.670;11.936;2023-05-25T10:44:33;22.30;74.78
62476;DHT22;50739;45.670;11.936;2023-05-25T10:49:51;22.48;75.06
62476;DHT22;50739;45.670;11.936;2023-05-25T10:54:55;22.65;72.17
62476;DHT22;50739;45.670;11.936;2023-05-25T11:00:02;22.83;71.46
62476;DHT22;50739;45.670;11.936;2023-05-25T11:05:30;23.09;71.33
62476;DHT22;50739;45.670;11.936;2023-05-25T11:10:52;23.30;71.82
62476;DHT22;50739;45.670;11.936;2023-05-25T11:16:18;23.59;67.11
62476;DHT22;50739;45.670;11.936;2023-05-25T11:21:24;23.88;65.59
62476;DHT22;50739;45.670;11.936;2023-05-25T11:26:55;24.04;64.23
62476;DHT22;50739;45.670;11.936;2023-05-25T11:31:59;24.23;64.66
62476;DHT22;50739;45.670;11.936;2023-05-25T11:37:03;24.52;63.04
62476;DHT22;50739;45.670;11.936;2023-05-25T11:42:06;24.66;61.28
62476;DHT22;50739;45.670;11.936;2023-05-25T11:47:13;24.77;64.65
62476;DHT22;50739;45.670;11.936;2023-05-25T11:52:19;24.80;62.39
62476;DHT22;50739;45.670;11.936;2023-05-25T11:57:23;24.92;64.79
62476;DHT22;50739;45.670;11.936;2023-05-25T12:02:36;25.12;60.60
62476;DHT22;50739;45.670;11.936;2023-05-25T12:07:42;25.29;60.43
62476;DHT22;50739;45.670;11.936;2023-05-25T12:12:46;25.39;60.11
62476;DHT22;50739;45.670;11.936;2023-05-25T12:17:51;25.38;59.04
62476;DHT22;50739;45.670;11.936;2023-05-25T12:22:53;25.47;60.81
62476;DHT22;50739;45.670;11.936;2023-05-25T12:28:19;25.61;56.82
62476;DHT22;50739;45.670;11.936;2023-05-25T12:33:23;25.83;59.32
62476;DHT22;50739;45.670;11.936;2023-05-25T12:38:25;26.05;59.64
62476;DHT22;50739;45.670;11.936;2023-05-25T12:43:36;26.24;57.83
62476;DHT22;50739;45.670;11.936;2023-05-25T12:48:39;26.38;56.18
62476;DHT22;50739;45.670;11.936;2023-05-25T12:53:48;26.68;56.98
62476;DHT22;50739;45.670;11.936;2023-05-25T12:58:51;27.03;57.26
62476;DHT22;50739;45.670;11.936;2023-05-25T13:03:55;27.48;56.06
62476;DHT22;50739;45.670;11.936;2023-05-25T13:08:57;27.79;54.99
62476;DHT22;50739;45.670;11.936;2023-05-25T13:13:59;28.25;54.41
62476;DHT22;50739;45.670;11.936;2023-05-25T13:19:03;27.99;52.36
62476;DHT22;50739;45.670;11.936;2023-05-25T13:24:06;28.34;51.95
62476;DHT22;50739;45.670;11.936;2023-05-25T13:29:08;28.62;51.80
62476;DHT22;50739;45.670;11.936;2023-05-25T13:34:12;28.85;50.87
62476;DHT22;50739;45.670;11.936;2023-05-25T13:39:14;29.31;49.58
62476;DHT22;50739;45.670;11.936;2023-05-25T13:44:16;29.23;48.54
62476;DHT22;50739;45.670;11.936;2023-05-25T13:49:20;29.13;48.41
62476;DHT22;50739;45.670;11.936;2023-05-25T13:54:22;28.44;49.75
62476;DHT22;50739;45.670;11.936;2023-05-25T13:59:25;28.44;49.60
62476;DHT22;50739;45.670;11.936;2023-05-25T14:04:28;29.00;48.88
62476;DHT22;50739;45.670;11.936;2023-05-25T14:09:31;29.43;46.78
62476;DHT22;50739;45.670;11.936;2023-05-25T14:14:33;29.61;45.59
62476;DHT22;50739;45.670;11.936;2023-05-25T14:19:37;29.64;47.60
62476;DHT22;50739;45.670;11.936;2023-05-25T14:24:40;30.20;45.98
62476;DHT22;50739;45.670;11.936;2023-05-25T14:29:42;31.07;45.89
62476;DHT22;50739;45.670;11.936;2023-05-25T14:34:45;31.22;45.30
62476;DHT22;50739;45.670;11.936;2023-05-25T14:39:48;31.87;43.46
62476;DHT22;50739;45.670;11.936;2023-05-25T14:44:50;32.20;43.72
62476;DHT22;50739;45.670;11.936;2023-05-25T14:49:54;32.40;42.90
62476;DHT22;50739;45.670;11.936;2023-05-25T14:54:56;32.05;41.84
62476;DHT22;50739;45.670;11.936;2023-05-25T14:59:58;32.21;41.77
62476;DHT22;50739;45.670;11.936;2023-05-25T15:05:02;32.11;41.99
62476;DHT22;50739;45.670;11.936;2023-05-25T15:10:06;32.32;41.76
62476;DHT22;50739;45.670;11.936;2023-05-25T15:15:09;32.29;41.71
62476;DHT22;50739;45.670;11.936;2023-05-25T15:20:13;32.12;42.84
62476;DHT22;50739;45.670;11.936;2023-05-25T15:25:15;32.02;42.39
62476;DHT22;50739;45.670;11.936;2023-05-25T15:30:18;31.69;44.07
62476;DHT22;50739;45.670;11.936;2023-05-25T15:35:21;31.25;45.08
62476;DHT22;50739;45.670;11.936;2023-05-25T15:40:30;30.71;44.29
62476;DHT22;50739;45.670;11.936;2023-05-25T15:45:32;30.33;44.26
62476;DHT22;50739;45.670;11.936;2023-05-25T15:50:36;29.91;46.08
62476;DHT22;50739;45.670;11.936;2023-05-25T15:55:39;29.95;46.10
62476;DHT22;50739;45.670;11.936;2023-05-25T16:00:41;29.54;46.21
62476;DHT22;50739;45.670;11.936;2023-05-25T16:05:45;29.89;46.02
62476;DHT22;50739;45.670;11.936;2023-05-25T16:10:50;29.99;47.35
62476;DHT22;50739;45.670;11.936;2023-05-25T16:15:52;29.92;46.15
62476;DHT22;50739;45.670;11.936;2023-05-25T16:20:56;29.75;47.41
62476;DHT22;50739;45.670;11.936;2023-05-25T16:25:58;29.33;47.01
62476;DHT22;50739;45.670;11.936;2023-05-25T16:31:00;29.16;47.21
62476;DHT22;50739;45.670;11.936;2023-05-25T16:36:05;29.16;49.54
62476;DHT22;50739;45.670;11.936;2023-05-25T16:41:07;29.13;47.24
62476;DHT22;50739;45.670;11.936;2023-05-25T16:46:10;28.92;48.57
62476;DHT22;50739;45.670;11.936;2023-05-25T16:51:13;28.82;49.68
62476;DHT22;50739;45.670;11.936;2023-05-25T16:56:16;28.89;48.70
62476;DHT22;50739;45.670;11.936;2023-05-25T17:01:21;28.72;49.89
62476;DHT22;50739;45.670;11.936;2023-05-25T17:06:24;28.34;50.43
62476;DHT22;50739;45.670;11.936;2023-05-25T17:11:27;28.23;52.10
62476;DHT22;50739;45.670;11.936;2023-05-25T17:16:29;28.00;51.56
62476;DHT22;50739;45.670;11.936;2023-05-25T17:21:33;27.93;53.46
62476;DHT22;50739;45.670;11.936;2023-05-25T17:26:35;27.70;53.84
62476;DHT22;50739;45.670;11.936;2023-05-25T17:31:37;27.45;54.66
62476;DHT22;50739;45.670;11.936;2023-05-25T17:36:41;27.21;55.83
62476;DHT22;50739;45.670;11.936;2023-05-25T17:41:43;26.96;56.83
62476;DHT22;50739;45.670;11.936;2023-05-25T17:46:46;26.86;57.20
62476;DHT22;50739;45.670;11.936;2023-05-25T17:51:50;26.82;57.30
62476;DHT22;50739;45.670;11.936;2023-05-25T17:56:52;26.55;57.94
62476;DHT22;50739;45.670;11.936;2023-05-25T18:01:55;26.44;58.11
62476;DHT22;50739;45.670;11.936;2023-05-25T18:06:58;26.35;58.21
62476;DHT22;50739;45.670;11.936;2023-05-25T18:12:01;26.32;58.71
62476;DHT22;50739;45.670;11.936;2023-05-25T18:17:04;26.22;58.60
62476;DHT22;50739;45.670;11.936;2023-05-25T18:22:07;26.01;59.01
62476;DHT22;50739;45.670;11.936;2023-05-25T18:27:10;25.94;59.01
62476;DHT22;50739;45.670;11.936;2023-05-25T18:32:12;25.87;59.05
62476;DHT22;50739;45.670;11.936;2023-05-25T18:37:16;25.83;59.43
62476;DHT22;50739;45.670;11.936;2023-05-25T18:42:18;25.76;59.55
62476;DHT22;50739;45.670;11.936;2023-05-25T18:47:21;25.66;60.31
62476;DHT22;50739;45.670;11.936;2023-05-25T18:52:24;25.52;60.49
62476;DHT22;50739;45.670;11.936;2023-05-25T18:57:27;25.39;60.92
62476;DHT22;50739;45.670;11.936;2023-05-25T19:02:29;25.31;61.43
62476;DHT22;50739;45.670;11.936;2023-05-25T19:07:33;25.21;61.26
62476;DHT22;50739;45.670;11.936;2023-05-25T19:12:39;25.12;61.97
62476;DHT22;50739;45.670;11.936;2023-05-25T19:17:41;24.98;62.04
62476;DHT22;50739;45.670;11.936;2023-05-25T19:22:45;24.91;61.95
62476;DHT22;50739;45.670;11.936;2023-05-25T19:27:47;24.83;62.37
62476;DHT22;50739;45.670;11.936;2023-05-25T19:32:49;24.67;63.24
62476;DHT22;50739;45.670;11.936;2023-05-25T19:37:53;24.64;63.50
62476;DHT22;50739;45.670;11.936;2023-05-25T19:42:56;24.52;64.22
62476;DHT22;50739;45.670;11.936;2023-05-25T19:47:58;24.37;64.73
62476;DHT22;50739;45.670;11.936;2023-05-25T19:53:02;24.37;65.42
62476;DHT22;50739;45.670;11.936;2023-05-25T19:58:05;24.29;65.79
62476;DHT22;50739;45.670;11.936;2023-05-25T20:03:08;24.15;66.32
62476;DHT22;50739;45.670;11.936;2023-05-25T20:08:11;24.11;66.92
62476;DHT22;50739;45.670;11.936;2023-05-25T20:13:13;24.04;68.09
62476;DHT22;50739;45.670;11.936;2023-05-25T20:18:16;23.94;68.46
62476;DHT22;50739;45.670;11.936;2023-05-25T20:23:20;23.78;68.64
62476;DHT22;50739;45.670;11.936;2023-05-25T20:28:22;23.67;70.45
62476;DHT22;50739;45.670;11.936;2023-05-25T20:33:24;23.53;70.55
62476;DHT22;50739;45.670;11.936;2023-05-25T20:38:28;23.40;71.04
62476;DHT22;50739;45.670;11.936;2023-05-25T20:43:30;23.27;71.79
62476;DHT22;50739;45.670;11.936;2023-05-25T20:48:33;23.19;71.99
62476;DHT22;50739;45.670;11.936;2023-05-25T20:53:36;23.06;72.73
62476;DHT22;50739;45.670;11.936;2023-05-25T20:58:39;22.87;73.66
62476;DHT22;50739;45.670;11.936;2023-05-25T21:03:41;22.78;74.20
62476;DHT22;50739;45.670;11.936;2023-05-25T21:08:45;22.67;74.94
62476;DHT22;50739;45.670;11.936;2023-05-25T21:13:47;22.69;74.55
62476;DHT22;50739;45.670;11.936;2023-05-25T21:18:50;22.67;74.86
62476;DHT22;50739;45.670;11.936;2023-05-25T21:23:53;22.51;75.73
62476;DHT22;50739;45.670;11.936;2023-05-25T21:28:56;22.41;75.43
62476;DHT22;50739;45.670;11.936;2023-05-25T21:33:59;22.47;72.38
62476;DHT22;50739;45.670;11.936;2023-05-25T21:39:02;22.53;72.54
62476;DHT22;50739;45.670;11.936;2023-05-25T21:44:05;22.39;72.92
62476;DHT22;50739;45.670;11.936;2023-05-25T21:49:07;22.32;73.04
62476;DHT22;50739;45.670;11.936;2023-05-25T21:54:11;22.30;73.84
62476;DHT22;50739;45.670;11.936;2023-05-25T21:59:14;21.95;74.93
62476;DHT22;50739;45.670;11.936;2023-05-25T22:04:16;21.88;75.23
62476;DHT22;50739;45.670;11.936;2023-05-25T22:09:20;21.88;75.80
62476;DHT22;50739;45.670;11.936;2023-05-25T22:14:22;21.68;77.02
62476;DHT22;50739;45.670;11.936;2023-05-25T22:19:24;21.74;75.56
62476;DHT22;50739;45.670;11.936;2023-05-25T22:24:28;21.75;75.96
62476;DHT22;50739;45.670;11.936;2023-05-25T22:29:30;21.55;77.52
62476;DHT22;50739;45.670;11.936;2023-05-25T22:34:32;21.36;78.12
62476;DHT22;50739;45.670;11.936;2023-05-25T22:39:36;21.33;78.65
62476;DHT22;50739;45.670;11.936;2023-05-25T22:44:38;21.22;78.59
62476;DHT22;50739;45.670;11.936;2023-05-25T22:49:41;21.26;78.71
62476;DHT22;50739;45.670;11.936;2023-05-25T22:54:44;21.11;79.18
62476;DHT22;50739;45.670;11.936;2023-05-25T22:59:48;20.99;79.82
62476;DHT22;50739;45.670;11.936;2023-05-25T23:04:50;21.06;79.55
62476;DHT22;50739;45.670;11.936;2023-05-25T23:09:54;21.04;79.15
62476;DHT22;50739;45.670;11.936;2023-05-25T23:14:56;20.72;79.68
62476;DHT22;50739;45.670;11.936;2023-05-25T23:19:59;20.58;79.65
62476;DHT22;50739;45.670;11.936;2023-05-25T23:25:04;20.62;78.79
62476;DHT22;50739;45.670;11.936;2023-05-25T23:30:07;20.54;78.75
62476;DHT22;50739;45.670;11.936;2023-05-25T23:35:09;20.35;79.44
62476;DHT22;50739;45.670;11.936;2023-05-25T23:40:13;20.23;79.16
62476;DHT22;50739;45.670;11.936;2023-05-25T23:45:16;20.17;78.60
62476;DHT22;50739;45.670;11.936;2023-05-25T23:50:18;20.27;78.55
62476;DHT22;50739;45.670;11.936;2023-05-25T23:55:22;20.34;78.19
